sensor_id;sensor_type;location;lat;lon;timestamp;pressure;altitude;pressure_sealevel;temperature;humidity
7836;BME280;3963;42.658;23.298;2023-02-12T00:01:39;58203.97;;;1.32;49.70
7836;BME280;3963;42.658;23.298;2023-02-12T00:04:06;58188.41;;;1.39;48.97
7836;BME280;3963;42.658;23.298;2023-02-12T00:06:33;58197.22;;;1.28;49.79
7836;BME280;3963;42.658;23.298;2023-02-12T00:09:01;58199.56;;;1.23;50.05
7836;BME280;3963;42.658;23.298;2023-02-12T00:11:28;58192.72;;;1.17;50.17
7836;BME280;3963;42.658;23.298;2023-02-12T00:13:56;58200.03;;;1.21;50.09
7836;BME280;3963;42.658;23.298;2023-02-12T00:16:25;58194.41;;;1.21;50.08
7836;BME280;3963;42.658;23.298;2023-02-12T00:18:54;58175.00;;;1.19;50.09
7836;BME280;3963;42.658;23.298;2023-02-12T00:21:21;58203.53;;;1.20;49.88
7836;BME280;3963;42.658;23.298;2023-02-12T00:23:48;58160.72;;;1.20;49.95
7836;BME280;3963;42.658;23.298;2023-02-12T00:26:22;58178.66;;;1.23;49.62
7836;BME280;3963;42.658;23.298;2023-02-12T00:28:49;58175.59;;;1.22;50.00
7836;BME280;3963;42.658;23.298;2023-02-12T00:31:18;58167.41;;;1.22;49.73
7836;BME280;3963;42.658;23.298;2023-02-12T00:33:46;58200.19;;;1.26;49.79
7836;BME280;3963;42.658;23.298;2023-02-12T00:36:14;58179.00;;;1.33;50.05
7836;BME280;3963;42.658;23.298;2023-02-12T00:38:42;58167.13;;;1.29;49.91
7836;BME280;3963;42.658;23.298;2023-02-12T00:41:09;58185.69;;;1.34;49.92
7836;BME280;3963;42.658;23.298;2023-02-12T00:43:37;58174.78;;;1.29;50.36
7836;BME280;3963;42.658;23.298;2023-02-12T00:46:04;58198.44;;;1.20;50.38
7836;BME280;3963;42.658;23.298;2023-02-12T00:48:33;58183.94;;;1.28;50.45
7836;BME280;3963;42.658;23.298;2023-02-12T00:51:00;58143.06;;;1.25;50.20
7836;BME280;3963;42.658;23.298;2023-02-12T00:53:27;58197.81;;;1.31;49.82
7836;BME280;3963;42.658;23.298;2023-02-12T00:55:54;58195.88;;;1.34;49.97
7836;BME280;3963;42.658;23.298;2023-02-12T00:58:20;58159.50;;;1.29;50.44
7836;BME280;3963;42.658;23.298;2023-02-12T01:00:49;58154.06;;;1.19;50.65
7836;BME280;3963;42.658;23.298;2023-02-12T01:03:16;58193.59;;;1.27;50.82
7836;BME280;3963;42.658;23.298;2023-02-12T01:05:43;58186.56;;;1.30;50.87
7836;BME280;3963;42.658;23.298;2023-02-12T01:08:11;58187.53;;;1.29;50.81
7836;BME280;3963;42.658;23.298;2023-02-12T01:10:38;58203.97;;;1.32;50.95
7836;BME280;3963;42.658;23.298;2023-02-12T01:13:05;58178.03;;;1.34;51.07
7836;BME280;3963;42.658;23.298;2023-02-12T01:15:33;58195.78;;;1.32;50.87
7836;BME280;3963;42.658;23.298;2023-02-12T01:18:01;58190.41;;;1.39;51.11
7836;BME280;3963;42.658;23.298;2023-02-12T01:20:28;58173.81;;;1.30;51.30
7836;BME280;3963;42.658;23.298;2023-02-12T01:22:55;58153.78;;;1.26;51.42
7836;BME280;3963;42.658;23.298;2023-02-12T01:25:22;58170.22;;;1.29;52.03
7836;BME280;3963;42.658;23.298;2023-02-12T01:27:51;58153.88;;;1.28;51.71
7836;BME280;3963;42.658;23.298;2023-02-12T01:30:18;58164.84;;;1.36;51.33
7836;BME280;3963;42.658;23.298;2023-02-12T01:32:47;58147.28;;;1.29;52.59
7836;BME280;3963;42.658;23.298;2023-02-12T01:35:15;58173.13;;;1.25;52.47
7836;BME280;3963;42.658;23.298;2023-02-12T01:37:42;58171.19;;;1.28;52.42
7836;BME280;3963;42.658;23.298;2023-02-12T01:40:12;58196.16;;;1.27;52.66
7836;BME280;3963;42.658;23.298;2023-02-12T01:42:40;58214.75;;;1.35;52.80
7836;BME280;3963;42.658;23.298;2023-02-12T01:45:44;58158.00;;;1.30;53.13
7836;BME280;3963;42.658;23.298;2023-02-12T01:48:12;58174.53;;;1.21;53.31
7836;BME280;3963;42.658;23.298;2023-02-12T01:50:41;58135.53;;;1.13;53.97
7836;BME280;3963;42.658;23.298;2023-02-12T01:53:09;58154.41;;;1.14;54.22
7836;BME280;3963;42.658;23.298;2023-02-12T01:55:38;58115.34;;;1.03;54.37
7836;BME280;3963;42.658;23.298;2023-02-12T01:58:06;58145.13;;;1.10;54.24
7836;BME280;3963;42.658;23.298;2023-02-12T02:00:34;58146.16;;;1.11;55.03
7836;BME280;3963;42.658;23.298;2023-02-12T02:03:01;58137.50;;;0.95;55.68
7836;BME280;3963;42.658;23.298;2023-02-12T02:05:34;58127.47;;;1.00;55.60
7836;BME280;3963;42.658;23.298;2023-02-12T02:08:05;58149.44;;;1.02;55.56
7836;BME280;3963;42.658;23.298;2023-02-12T02:10:32;58142.78;;;1.00;55.90
7836;BME280;3963;42.658;23.298;2023-02-12T02:12:59;58128.25;;;1.08;55.34
7836;BME280;3963;42.658;23.298;2023-02-12T02:15:46;58149.44;;;1.02;55.89
7836;BME280;3963;42.658;23.298;2023-02-12T02:18:18;58086.19;;;1.00;55.85
7836;BME280;3963;42.658;23.298;2023-02-12T02:21:18;58146.88;;;1.02;56.04
7836;BME280;3963;42.658;23.298;2023-02-12T02:24:14;58166.75;;;1.01;56.47
7836;BME280;3963;42.658;23.298;2023-02-12T02:26:59;58122.50;;;0.88;57.22
7836;BME280;3963;42.658;23.298;2023-02-12T02:29:43;58151.81;;;0.97;57.55
7836;BME280;3963;42.658;23.298;2023-02-12T02:32:17;58132.22;;;1.05;57.37
7836;BME280;3963;42.658;23.298;2023-02-12T02:34:53;58159.63;;;1.02;57.52
7836;BME280;3963;42.658;23.298;2023-02-12T02:37:26;58125.56;;;0.89;58.03
7836;BME280;3963;42.658;23.298;2023-02-12T02:39:58;58116.59;;;0.95;58.74
7836;BME280;3963;42.658;23.298;2023-02-12T02:42:32;58110.38;;;0.91;59.33
7836;BME280;3963;42.658;23.298;2023-02-12T02:45:07;58115.69;;;0.99;60.47
7836;BME280;3963;42.658;23.298;2023-02-12T02:47:42;58168.94;;;1.06;60.19
7836;BME280;3963;42.658;23.298;2023-02-12T02:50:13;58170.06;;;1.09;60.67
7836;BME280;3963;42.658;23.298;2023-02-12T02:52:44;58161.09;;;1.16;60.50
7836;BME280;3963;42.658;23.298;2023-02-12T02:55:15;58159.00;;;1.13;60.74
7836;BME280;3963;42.658;23.298;2023-02-12T02:57:47;58134.69;;;0.88;60.89
7836;BME280;3963;42.658;23.298;2023-02-12T03:00:17;58152.13;;;1.22;61.18
7836;BME280;3963;42.658;23.298;2023-02-12T03:02:49;58151.88;;;1.14;60.98
7836;BME280;3963;42.658;23.298;2023-02-12T03:05:21;58189.47;;;1.11;61.64
7836;BME280;3963;42.658;23.298;2023-02-12T03:07:52;58128.84;;;1.11;61.50
7836;BME280;3963;42.658;23.298;2023-02-12T03:10:23;58157.34;;;1.09;61.77
7836;BME280;3963;42.658;23.298;2023-02-12T03:12:54;58168.91;;;1.21;61.98
7836;BME280;3963;42.658;23.298;2023-02-12T03:15:25;58120.94;;;1.19;62.02
7836;BME280;3963;42.658;23.298;2023-02-12T03:17:57;58142.75;;;1.15;62.83
7836;BME280;3963;42.658;23.298;2023-02-12T03:20:29;58123.31;;;1.13;62.77
7836;BME280;3963;42.658;23.298;2023-02-12T03:23:00;58165.41;;;1.22;62.67
7836;BME280;3963;42.658;23.298;2023-02-12T03:25:33;58188.94;;;1.25;62.85
7836;BME280;3963;42.658;23.298;2023-02-12T03:28:04;58154.91;;;1.29;62.83
7836;BME280;3963;42.658;23.298;2023-02-12T03:30:39;58172.66;;;1.41;62.51
7836;BME280;3963;42.658;23.298;2023-02-12T03:33:16;58188.84;;;1.37;62.21
7836;BME280;3963;42.658;23.298;2023-02-12T03:35:53;58195.78;;;1.46;62.73
7836;BME280;3963;42.658;23.298;2023-02-12T03:38:34;58189.09;;;1.45;62.86
7836;BME280;3963;42.658;23.298;2023-02-12T03:41:06;58221.88;;;1.49;63.15
7836;BME280;3963;42.658;23.298;2023-02-12T03:43:42;58207.19;;;1.52;62.40
7836;BME280;3963;42.658;23.298;2023-02-12T03:46:19;58190.06;;;1.43;63.32
7836;BME280;3963;42.658;23.298;2023-02-12T03:48:57;58214.41;;;1.54;63.52
7836;BME280;3963;42.658;23.298;2023-02-12T03:51:29;58216.22;;;1.63;63.07
7836;BME280;3963;42.658;23.298;2023-02-12T03:53:59;58239.50;;;1.74;62.60
7836;BME280;3963;42.658;23.298;2023-02-12T03:56:31;58265.41;;;1.54;63.61
7836;BME280;3963;42.658;23.298;2023-02-12T03:59:00;58200.97;;;1.49;63.90
7836;BME280;3963;42.658;23.298;2023-02-12T04:01:27;58205.97;;;1.32;64.73
7836;BME280;3963;42.658;23.298;2023-02-12T04:03:56;58188.50;;;1.27;65.34
7836;BME280;3963;42.658;23.298;2023-02-12T04:06:25;58169.59;;;1.26;65.37
7836;BME280;3963;42.658;23.298;2023-02-12T04:08:54;58204.41;;;1.30;65.45
7836;BME280;3963;42.658;23.298;2023-02-12T04:11:30;58164.69;;;1.17;65.75
7836;BME280;3963;42.658;23.298;2023-02-12T04:14:13;58176.13;;;1.08;66.69
7836;BME280;3963;42.658;23.298;2023-02-12T04:16:47;58137.59;;;0.98;67.09
7836;BME280;3963;42.658;23.298;2023-02-12T04:19:21;58134.34;;;0.92;68.19
7836;BME280;3963;42.658;23.298;2023-02-12T04:21:59;58157.88;;;0.95;68.36
7836;BME280;3963;42.658;23.298;2023-02-12T04:24:38;58111.84;;;0.90;68.64
7836;BME280;3963;42.658;23.298;2023-02-12T04:27:15;58122.25;;;0.81;69.80
7836;BME280;3963;42.658;23.298;2023-02-12T04:29:49;58148.22;;;0.81;69.83
7836;BME280;3963;42.658;23.298;2023-02-12T04:32:20;58137.78;;;0.88;69.48
7836;BME280;3963;42.658;23.298;2023-02-12T04:34:55;58096.56;;;0.90;69.50
7836;BME280;3963;42.658;23.298;2023-02-12T04:37:25;58137.84;;;0.91;69.77
7836;BME280;3963;42.658;23.298;2023-02-12T04:39:55;58148.81;;;0.99;69.49
7836;BME280;3963;42.658;23.298;2023-02-12T04:42:22;58132.88;;;0.79;69.67
7836;BME280;3963;42.658;23.298;2023-02-12T04:44:49;58123.44;;;0.87;70.01
7836;BME280;3963;42.658;23.298;2023-02-12T04:47:16;58135.41;;;0.79;70.74
7836;BME280;3963;42.658;23.298;2023-02-12T04:49:43;58109.63;;;0.69;70.52
7836;BME280;3963;42.658;23.298;2023-02-12T04:52:12;58101.38;;;0.66;70.93
7836;BME280;3963;42.658;23.298;2023-02-12T04:54:38;58061.53;;;0.62;71.27
7836;BME280;3963;42.658;23.298;2023-02-12T04:57:05;58082.84;;;0.60;72.07
7836;BME280;3963;42.658;23.298;2023-02-12T04:59:32;58049.41;;;0.65;71.84
7836;BME280;3963;42.658;23.298;2023-02-12T05:01:59;58109.06;;;0.83;71.85
7836;BME280;3963;42.658;23.298;2023-02-12T05:04:25;58094.50;;;0.74;71.18
7836;BME280;3963;42.658;23.298;2023-02-12T05:06:52;58099.16;;;0.76;71.65
7836;BME280;3963;42.658;23.298;2023-02-12T05:09:21;58105.56;;;0.70;71.27
7836;BME280;3963;42.658;23.298;2023-02-12T05:11:47;58072.31;;;0.65;71.06
7836;BME280;3963;42.658;23.298;2023-02-12T05:14:14;58085.81;;;0.73;70.50
7836;BME280;3963;42.658;23.298;2023-02-12T05:16:41;58099.31;;;0.81;69.81
7836;BME280;3963;42.658;23.298;2023-02-12T05:19:08;58114.75;;;1.00;68.22
7836;BME280;3963;42.658;23.298;2023-02-12T05:21:36;58151.34;;;1.13;66.88
7836;BME280;3963;42.658;23.298;2023-02-12T05:24:03;58158.63;;;1.18;67.08
7836;BME280;3963;42.658;23.298;2023-02-12T05:26:32;58153.50;;;1.01;70.82
7836;BME280;3963;42.658;23.298;2023-02-12T05:28:59;58134.94;;;1.10;70.53
7836;BME280;3963;42.658;23.298;2023-02-12T05:31:26;58095.50;;;1.04;70.89
7836;BME280;3963;42.658;23.298;2023-02-12T05:33:53;58121.69;;;0.95;72.58
7836;BME280;3963;42.658;23.298;2023-02-12T05:36:21;58099.75;;;0.79;73.41
7836;BME280;3963;42.658;23.298;2023-02-12T05:38:50;58119.06;;;0.92;73.47
7836;BME280;3963;42.658;23.298;2023-02-12T05:41:19;58124.34;;;0.83;75.69
7836;BME280;3963;42.658;23.298;2023-02-12T05:43:48;58136.03;;;0.82;77.25
7836;BME280;3963;42.658;23.298;2023-02-12T05:46:16;58081.69;;;0.71;78.50
7836;BME280;3963;42.658;23.298;2023-02-12T05:48:43;58079.84;;;0.77;79.26
7836;BME280;3963;42.658;23.298;2023-02-12T05:51:11;58117.66;;;0.81;79.91
7836;BME280;3963;42.658;23.298;2023-02-12T05:53:39;58073.25;;;0.78;80.00
7836;BME280;3963;42.658;23.298;2023-02-12T05:56:12;58074.03;;;0.39;82.85
7836;BME280;3963;42.658;23.298;2023-02-12T05:58:40;58102.41;;;0.67;83.40
7836;BME280;3963;42.658;23.298;2023-02-12T06:01:16;58094.84;;;0.69;85.31
7836;BME280;3963;42.658;23.298;2023-02-12T06:03:43;58084.69;;;0.69;85.65
7836;BME280;3963;42.658;23.298;2023-02-12T06:06:10;58080.59;;;0.53;89.32
7836;BME280;3963;42.658;23.298;2023-02-12T06:08:37;58075.41;;;0.50;91.35
7836;BME280;3963;42.658;23.298;2023-02-12T06:11:06;58059.84;;;0.57;92.45
7836;BME280;3963;42.658;23.298;2023-02-12T06:13:34;58086.97;;;0.62;93.09
7836;BME280;3963;42.658;23.298;2023-02-12T06:16:01;58058.97;;;0.62;94.21
7836;BME280;3963;42.658;23.298;2023-02-12T06:18:29;58103.22;;;0.60;95.93
7836;BME280;3963;42.658;23.298;2023-02-12T06:20:56;58045.75;;;0.46;96.60
7836;BME280;3963;42.658;23.298;2023-02-12T06:23:24;58086.72;;;0.69;96.52
7836;BME280;3963;42.658;23.298;2023-02-12T06:25:54;58111.34;;;0.75;97.24
7836;BME280;3963;42.658;23.298;2023-02-12T06:28:22;58105.03;;;0.69;98.67
7836;BME280;3963;42.658;23.298;2023-02-12T06:30:48;58081.88;;;0.62;100.00
7836;BME280;3963;42.658;23.298;2023-02-12T06:33:15;58077.59;;;0.55;100.00
7836;BME280;3963;42.658;23.298;2023-02-12T06:35:44;58062.34;;;0.40;100.00
7836;BME280;3963;42.658;23.298;2023-02-12T06:38:10;58057.88;;;0.43;100.00
7836;BME280;3963;42.658;23.298;2023-02-12T06:40:37;58064.88;;;0.55;100.00
7836;BME280;3963;42.658;23.298;2023-02-12T06:43:04;58040.50;;;0.41;100.00
7836;BME280;3963;42.658;23.298;2023-02-12T06:45:33;58086.66;;;0.37;100.00
7836;BME280;3963;42.658;23.298;2023-02-12T06:48:00;58065.78;;;0.36;100.00
7836;BME280;3963;42.658;23.298;2023-02-12T06:50:27;58044.19;;;0.30;100.00
7836;BME280;3963;42.658;23.298;2023-02-12T06:52:57;58022.09;;;0.38;100.00
7836;BME280;3963;42.658;23.298;2023-02-12T06:55:24;58062.19;;;0.35;100.00
7836;BME280;3963;42.658;23.298;2023-02-12T06:57:51;58032.97;;;0.29;100.00
7836;BME280;3963;42.658;23.298;2023-02-12T07:00:18;58077.53;;;0.38;100.00
7836;BME280;3963;42.658;23.298;2023-02-12T07:02:51;58029.44;;;0.45;100.00
7836;BME280;3963;42.658;23.298;2023-02-12T07:05:18;58045.22;;;0.46;100.00
7836;BME280;3963;42.658;23.298;2023-02-12T07:07:44;58050.31;;;0.46;100.00
7836;BME280;3963;42.658;23.298;2023-02-12T07:10:13;58036.22;;;0.35;100.00
7836;BME280;3963;42.658;23.298;2023-02-12T07:12:40;58039.88;;;0.53;100.00
7836;BME280;3963;42.658;23.298;2023-02-12T07:15:07;58061.38;;;0.57;100.00
7836;BME280;3963;42.658;23.298;2023-02-12T07:17:34;58099.06;;;0.73;100.00
7836;BME280;3963;42.658;23.298;2023-02-12T07:20:01;58098.00;;;0.72;100.00
7836;BME280;3963;42.658;23.298;2023-02-12T07:22:28;58071.59;;;0.74;100.00
7836;BME280;3963;42.658;23.298;2023-02-12T07:24:55;58075.31;;;0.63;100.00
7836;BME280;3963;42.658;23.298;2023-02-12T07:27:23;58073.28;;;0.63;100.00
7836;BME280;3963;42.658;23.298;2023-02-12T07:29:50;58094.25;;;0.66;100.00
7836;BME280;3963;42.658;23.298;2023-02-12T07:32:17;58087.50;;;0.62;100.00
7836;BME280;3963;42.658;23.298;2023-02-12T07:34:43;58077.47;;;0.67;100.00
7836;BME280;3963;42.658;23.298;2023-02-12T07:37:10;58080.22;;;0.57;100.00
7836;BME280;3963;42.658;23.298;2023-02-12T07:39:37;58089.59;;;0.64;100.00
7836;BME280;3963;42.658;23.298;2023-02-12T07:42:04;58109.53;;;0.66;100.00
7836;BME280;3963;42.658;23.298;2023-02-12T07:44:34;58096.56;;;0.59;100.00
7836;BME280;3963;42.658;23.298;2023-02-12T07:47:01;58119.81;;;0.69;100.00
7836;BME280;3963;42.658;23.298;2023-02-12T07:49:29;58098.09;;;0.75;100.00
7836;BME280;3963;42.658;23.298;2023-02-12T07:51:56;58104.53;;;0.69;100.00
7836;BME280;3963;42.658;23.298;2023-02-12T07:54:23;58060.34;;;0.73;100.00
7836;BME280;3963;42.658;23.298;2023-02-12T07:56:50;58124.91;;;0.69;100.00
7836;BME280;3963;42.658;23.298;2023-02-12T07:59:18;58047.91;;;0.66;100.00
7836;BME280;3963;42.658;23.298;2023-02-12T08:01:48;58051.53;;;0.52;100.00
7836;BME280;3963;42.658;23.298;2023-02-12T08:04:17;58085.84;;;0.58;100.00
7836;BME280;3963;42.658;23.298;2023-02-12T08:06:46;58082.78;;;0.57;100.00
7836;BME280;3963;42.658;23.298;2023-02-12T08:09:16;58043.28;;;0.49;100.00
7836;BME280;3963;42.658;23.298;2023-02-12T08:11:44;58063.66;;;0.49;100.00
7836;BME280;3963;42.658;23.298;2023-02-12T08:14:13;58097.97;;;0.40;100.00
7836;BME280;3963;42.658;23.298;2023-02-12T08:16:42;58039.44;;;0.40;100.00
7836;BME280;3963;42.658;23.298;2023-02-12T08:19:11;58060.88;;;0.41;100.00
7836;BME280;3963;42.658;23.298;2023-02-12T08:21:38;58040.84;;;0.37;100.00
7836;BME280;3963;42.658;23.298;2023-02-12T08:24:05;58062.97;;;0.43;100.00
7836;BME280;3963;42.658;23.298;2023-02-12T08:26:36;58076.47;;;0.51;100.00
7836;BME280;3963;42.658;23.298;2023-02-12T08:29:05;58072.78;;;0.48;100.00
7836;BME280;3963;42.658;23.298;2023-02-12T08:31:34;58066.91;;;0.40;100.00
7836;BME280;3963;42.658;23.298;2023-02-12T08:34:02;58077.41;;;0.65;100.00
7836;BME280;3963;42.658;23.298;2023-02-12T08:36:35;58085.91;;;0.61;100.00
7836;BME280;3963;42.658;23.298;2023-02-12T08:39:04;58083.47;;;0.48;100.00
7836;BME280;3963;42.658;23.298;2023-02-12T08:41:31;58028.28;;;0.42;100.00
7836;BME280;3963;42.658;23.298;2023-02-12T08:44:00;58053.31;;;0.44;100.00
7836;BME280;3963;42.658;23.298;2023-02-12T08:46:28;58106.13;;;0.55;100.00
7836;BME280;3963;42.658;23.298;2023-02-12T08:48:57;58095.06;;;0.60;100.00
7836;BME280;3963;42.658;23.298;2023-02-12T08:51:26;58050.81;;;0.61;100.00
7836;BME280;3963;42.658;23.298;2023-02-12T08:53:57;58098.31;;;0.65;100.00
7836;BME280;3963;42.658;23.298;2023-02-12T08:56:26;58125.91;;;0.84;100.00
7836;BME280;3963;42.658;23.298;2023-02-12T08:58:55;58126.31;;;1.11;100.00
7836;BME280;3963;42.658;23.298;2023-02-12T09:01:25;58120.19;;;0.96;100.00
7836;BME280;3963;42.658;23.298;2023-02-12T09:03:52;58118.28;;;0.84;100.00
7836;BME280;3963;42.658;23.298;2023-02-12T09:06:21;58132.75;;;1.05;100.00
7836;BME280;3963;42.658;23.298;2023-02-12T09:08:48;58108.16;;;1.01;100.00
7836;BME280;3963;42.658;23.298;2023-02-12T09:11:19;58168.06;;;1.10;100.00
7836;BME280;3963;42.658;23.298;2023-02-12T09:13:48;58149.25;;;1.11;100.00
7836;BME280;3963;42.658;23.298;2023-02-12T09:16:15;58122.53;;;1.05;100.00
7836;BME280;3963;42.658;23.298;2023-02-12T09:18:42;58120.28;;;0.98;100.00
7836;BME280;3963;42.658;23.298;2023-02-12T09:21:11;58177.09;;;1.06;100.00
7836;BME280;3963;42.658;23.298;2023-02-12T09:23:38;58168.22;;;1.15;100.00
7836;BME280;3963;42.658;23.298;2023-02-12T09:26:05;58109.88;;;1.08;100.00
7836;BME280;3963;42.658;23.298;2023-02-12T09:28:34;58127.06;;;1.20;100.00
7836;BME280;3963;42.658;23.298;2023-02-12T09:31:04;58126.84;;;1.12;100.00
7836;BME280;3963;42.658;23.298;2023-02-12T09:33:31;58129.38;;;1.12;100.00
7836;BME280;3963;42.658;23.298;2023-02-12T09:36:00;58131.09;;;1.01;100.00
7836;BME280;3963;42.658;23.298;2023-02-12T09:38:28;58132.75;;;1.05;100.00
7836;BME280;3963;42.658;23.298;2023-02-12T09:41:08;58147.81;;;1.30;100.00
7836;BME280;3963;42.658;23.298;2023-02-12T09:43:41;58106.19;;;1.19;100.00
7836;BME280;3963;42.658;23.298;2023-02-12T09:46:15;58141.75;;;1.17;100.00
7836;BME280;3963;42.658;23.298;2023-02-12T09:48:56;58152.47;;;1.17;100.00
7836;BME280;3963;42.658;23.298;2023-02-12T09:51:27;58148.72;;;1.11;100.00
7836;BME280;3963;42.658;23.298;2023-02-12T09:54:01;58133.19;;;1.03;100.00
7836;BME280;3963;42.658;23.298;2023-02-12T09:56:29;58141.84;;;1.19;100.00
7836;BME280;3963;42.658;23.298;2023-02-12T09:58:58;58133.22;;;1.21;100.00
7836;BME280;3963;42.658;23.298;2023-02-12T10:01:27;58168.75;;;1.16;100.00
7836;BME280;3963;42.658;23.298;2023-02-12T10:03:55;58167.78;;;1.17;100.00
7836;BME280;3963;42.658;23.298;2023-02-12T10:06:24;58142.28;;;1.17;100.00
7836;BME280;3963;42.658;23.298;2023-02-12T10:09:28;58131.75;;;1.22;100.00
7836;BME280;3963;42.658;23.298;2023-02-12T10:12:03;58148.88;;;1.31;100.00
7836;BME280;3963;42.658;23.298;2023-02-12T10:14:48;58165.03;;;1.27;100.00
7836;BME280;3963;42.658;23.298;2023-02-12T10:17:27;58145.19;;;1.27;100.00
7836;BME280;3963;42.658;23.298;2023-02-12T10:22:54;58186.25;;;1.52;100.00
7836;BME280;3963;42.658;23.298;2023-02-12T10:25:25;58204.44;;;1.62;100.00
7836;BME280;3963;42.658;23.298;2023-02-12T10:27:56;58223.16;;;1.73;100.00
7836;BME280;3963;42.658;23.298;2023-02-12T10:30:26;58214.81;;;1.99;100.00
7836;BME280;3963;42.658;23.298;2023-02-12T10:33:00;58288.28;;;2.13;100.00
7836;BME280;3963;42.658;23.298;2023-02-12T10:35:29;58290.09;;;2.22;100.00
7836;BME280;3963;42.658;23.298;2023-02-12T10:38:02;58300.13;;;2.32;100.00
7836;BME280;3963;42.658;23.298;2023-02-12T10:40:31;58305.16;;;2.29;100.00
7836;BME280;3963;42.658;23.298;2023-02-12T10:42:59;58245.88;;;2.11;100.00
7836;BME280;3963;42.658;23.298;2023-02-12T10:45:31;58237.34;;;2.01;100.00
7836;BME280;3963;42.658;23.298;2023-02-12T10:48:05;58246.63;;;1.88;100.00
7836;BME280;3963;42.658;23.298;2023-02-12T10:50:41;58264.25;;;2.12;100.00
7836;BME280;3963;42.658;23.298;2023-02-12T10:53:17;58299.44;;;2.26;100.00
7836;BME280;3963;42.658;23.298;2023-02-12T10:55:45;58313.91;;;2.47;100.00
7836;BME280;3963;42.658;23.298;2023-02-12T10:58:19;58340.28;;;2.72;100.00
7836;BME280;3963;42.658;23.298;2023-02-12T11:00:55;58320.66;;;2.66;100.00
7836;BME280;3963;42.658;23.298;2023-02-12T11:03:23;58334.75;;;2.60;100.00
7836;BME280;3963;42.658;23.298;2023-02-12T11:05:53;58316.69;;;2.69;100.00
7836;BME280;3963;42.658;23.298;2023-02-12T11:08:30;58341.38;;;2.59;100.00
7836;BME280;3963;42.658;23.298;2023-02-12T11:11:09;58344.34;;;2.71;100.00
7836;BME280;3963;42.658;23.298;2023-02-12T11:13:38;58297.41;;;2.27;100.00
7836;BME280;3963;42.658;23.298;2023-02-12T11:16:08;58313.25;;;2.27;100.00
7836;BME280;3963;42.658;23.298;2023-02-12T11:18:36;58308.31;;;2.64;100.00
7836;BME280;3963;42.658;23.298;2023-02-12T11:21:05;58335.13;;;2.55;100.00
7836;BME280;3963;42.658;23.298;2023-02-12T11:23:34;58304.31;;;2.50;100.00
7836;BME280;3963;42.658;23.298;2023-02-12T11:26:03;58321.06;;;2.47;100.00
7836;BME280;3963;42.658;23.298;2023-02-12T11:28:33;58306.41;;;2.52;100.00
7836;BME280;3963;42.658;23.298;2023-02-12T11:31:02;58343.91;;;2.73;100.00
7836;BME280;3963;42.658;23.298;2023-02-12T11:33:35;58379.72;;;2.91;100.00
7836;BME280;3963;42.658;23.298;2023-02-12T11:36:05;58394.56;;;3.22;100.00
7836;BME280;3963;42.658;23.298;2023-02-12T11:38:47;58370.28;;;2.99;100.00
7836;BME280;3963;42.658;23.298;2023-02-12T11:41:23;58366.56;;;2.63;100.00
7836;BME280;3963;42.658;23.298;2023-02-12T11:43:50;58419.06;;;3.21;100.00
7836;BME280;3963;42.658;23.298;2023-02-12T11:46:19;58423.00;;;3.32;100.00
7836;BME280;3963;42.658;23.298;2023-02-12T11:48:49;58396.81;;;3.29;100.00
7836;BME280;3963;42.658;23.298;2023-02-12T11:51:19;58427.25;;;3.36;100.00
7836;BME280;3963;42.658;23.298;2023-02-12T11:53:49;58451.91;;;3.55;100.00
7836;BME280;3963;42.658;23.298;2023-02-12T11:56:17;58473.31;;;3.68;100.00
7836;BME280;3963;42.658;23.298;2023-02-12T11:58:45;58499.47;;;4.00;100.00
7836;BME280;3963;42.658;23.298;2023-02-12T12:01:17;58499.19;;;3.92;100.00
7836;BME280;3963;42.658;23.298;2023-02-12T12:03:53;58509.97;;;3.93;100.00
7836;BME280;3963;42.658;23.298;2023-02-12T12:06:28;58505.38;;;3.94;97.96
7836;BME280;3963;42.658;23.298;2023-02-12T12:09:02;58543.50;;;4.01;98.89
7836;BME280;3963;42.658;23.298;2023-02-12T12:11:36;58514.91;;;4.03;99.07
7836;BME280;3963;42.658;23.298;2023-02-12T12:14:11;58490.75;;;4.16;97.91
7836;BME280;3963;42.658;23.298;2023-02-12T12:16:43;58536.97;;;4.04;99.75
7836;BME280;3963;42.658;23.298;2023-02-12T12:19:35;58577.75;;;4.14;96.69
7836;BME280;3963;42.658;23.298;2023-02-12T12:22:26;58499.66;;;3.90;96.53
7836;BME280;3963;42.658;23.298;2023-02-12T12:24:59;58511.88;;;4.05;98.36
7836;BME280;3963;42.658;23.298;2023-02-12T12:27:34;58482.38;;;3.79;97.98
7836;BME280;3963;42.658;23.298;2023-02-12T12:30:23;58495.63;;;3.77;97.46
7836;BME280;3963;42.658;23.298;2023-02-12T12:32:58;58482.28;;;3.76;97.63
7836;BME280;3963;42.658;23.298;2023-02-12T12:35:35;58460.34;;;3.63;99.91
7836;BME280;3963;42.658;23.298;2023-02-12T12:38:11;58488.00;;;3.79;98.21
7836;BME280;3963;42.658;23.298;2023-02-12T12:40:54;58435.56;;;3.56;99.97
7836;BME280;3963;42.658;23.298;2023-02-12T12:43:34;58498.63;;;3.75;98.24
7836;BME280;3963;42.658;23.298;2023-02-12T12:46:16;58397.72;;;3.25;98.04
7836;BME280;3963;42.658;23.298;2023-02-12T12:49:22;58470.63;;;3.80;97.20
7836;BME280;3963;42.658;23.298;2023-02-12T12:52:14;58515.75;;;4.13;95.31
7836;BME280;3963;42.658;23.298;2023-02-12T12:55:37;58561.84;;;4.13;94.49
7836;BME280;3963;42.658;23.298;2023-02-12T12:58:14;58512.63;;;3.96;95.78
7836;BME280;3963;42.658;23.298;2023-02-12T13:00:56;58535.41;;;3.88;96.99
7836;BME280;3963;42.658;23.298;2023-02-12T13:03:59;58472.78;;;3.67;98.65
7836;BME280;3963;42.658;23.298;2023-02-12T13:06:40;58453.19;;;3.63;99.58
7836;BME280;3963;42.658;23.298;2023-02-12T13:09:36;58470.34;;;3.55;100.00
7836;BME280;3963;42.658;23.298;2023-02-12T13:12:28;58489.03;;;3.63;100.00
7836;BME280;3963;42.658;23.298;2023-02-12T13:15:02;58473.47;;;3.73;100.00
7836;BME280;3963;42.658;23.298;2023-02-12T13:17:35;58491.47;;;3.75;98.08
7836;BME280;3963;42.658;23.298;2023-02-12T13:20:10;58466.00;;;3.63;99.99
7836;BME280;3963;42.658;23.298;2023-02-12T13:22:44;58446.19;;;3.52;100.00
7836;BME280;3963;42.658;23.298;2023-02-12T13:25:22;58431.56;;;3.43;100.00
7836;BME280;3963;42.658;23.298;2023-02-12T13:27:51;58376.00;;;3.02;100.00
7836;BME280;3963;42.658;23.298;2023-02-12T13:30:21;58394.69;;;3.10;100.00
7836;BME280;3963;42.658;23.298;2023-02-12T13:32:58;58427.97;;;3.27;100.00
7836;BME280;3963;42.658;23.298;2023-02-12T13:35:28;58359.34;;;2.93;100.00
7836;BME280;3963;42.658;23.298;2023-02-12T13:37:58;58412.16;;;2.97;100.00
7836;BME280;3963;42.658;23.298;2023-02-12T13:40:29;58374.09;;;2.75;100.00
7836;BME280;3963;42.658;23.298;2023-02-12T13:43:05;58401.69;;;2.90;100.00